Terminal Aerodrome Forecast
Issued by NWS

Home | Current Version | Previous Version | Text Only | Print | Product List | Glossary On
Versions: 1 2 3 4 5 6 7 8 9 10 11 12 13 14 15
000
FTUS44 KBMX 290314 AAA
TAFTCL
TAF AMD
KTCL 290314Z 2903/2924 00000KT P6SM SKC
     FM290500 35009G18KT P6SM SCT070 SCT100
     FM290800 35009KT P6SM SKC
     FM291500 32010KT P6SM SKC=

USA.gov is the U.S. government's official web portal to all federal, state and local government web resources and services.